Airfield :
LOGIN :

Register | Disclaimer

   EN    FR    IT 

 










Legend :    VFR   Marginal VFR   IFR   Intensive IFR   Very Intensive IFR
Visi :
Ceiling :
>= 8 km
>= 3000ft
5 to 8 km
1000 to 3000 ft
1500m to 5 km
500 to 1000 ft
800 to 1500m
200 to 500 ft
< 800m
< 200 ft
Symbols :   Thunderstorms  Fog  Heavy snow  Heavy precipitations  Wind > 20 kt
SIGMETs :     Misc.  Thunderstorms  Icing  Turbulence  Mountain Waves  Volcanic Ashes






- Airport Elevation : 106 ft
- IATA code : XDA


LFBY - Dax Seyresse

CURRENT METAR :
  • 220000Z AUTO VRB02KT 9999 // ////// 08/01 Q1023

EXPIRED METARs :
  • 212330Z AUTO 03003KT 340V070 9999 // ////// 09/00 Q1023
  • 212300Z AUTO 05005KT 9999 // ////// 09/00 Q1023
  • 212230Z AUTO 03004KT 360V070 //// // ////// 10/01 Q1023
  • 212200Z AUTO 04005KT 350V070 //// // ////// 10/01 Q1022
  • 212130Z AUTO 03005KT 350V060 9999 // ////// 11/01 Q1022
  • 212100Z AUTO 03007KT 350V070 9999 // ////// 11/01 Q1022
  • 212030Z AUTO 02006KT 340V060 9999 // ////// 12/02 Q1022
  • 212000Z AUTO 02008KT 350V050 9999 // ////// 12/02 Q1021
  • 211930Z AUTO 01007KT 340V050 9999 // ////// 13/02 Q1021

Expired Forecast.



MET'MAP, your aeronautical weather chart ! - Copyright ORBIFLY December 2007 - Disclaimer

ORBIFLY MET'MAP TEAM :

Programming & Development : Alexandra Zaïnal
Original concept : Baudouin d'Aumeries
Technical & hardware support : Manuel Goepfert
Assistance : Marc-Olivier Méhu




SOURCES & CREDITS :

   NOAA